Etusivu
METAR-TAF:

METAR-TAF

Lentoasemat :

Islamabad, Pakistan

Leveyspiiri: 33-37N, Pituuspiiri: 073-06E, korkeus merenpinnasta: 507 m

Tämänhetkinen sää

Tämä raportti tehtiin 12 minuuttia sitten, kello 05.00 UTC
Tuuli 4 kn idästä
Lämpötila 31°C
Kosteus 49%
Ilmanpaine 1007 hPa
Näkyvyys: 4000 m
usvaa

METAR: OPRN 210500Z 09004KT 4000 HZ 31/19 Q1007.8/29.76

Aika: 10:12 (05:12 UTC)

Sääennuste

Tämä raportti tehtiin 1 tunti ja 42 minuuttia sitten, kello 03.30 UTC
Ennuste voimassa 21. päivästä klo 00 UTC - 22. päivään klo 06 UTC
Tuuli 10 kn etelästä/lounaasta
Näkyvyys: 4000 m
Muutamia pilviä 4000 ft:n korkeudessa
usvaa
Ajoittain
22. päivästä klo 09 UTC - 22. päivään klo 12 UTC
Tuuli 10 kn kaakosta puuskistuen 20 kn:hen
Näkyvyys: 4000 m
Muutamia pilviä 3000 ft:n korkeudessa
Hajanaisia pilviä 4000 ft:n korkeudessa
usvaa

TAF: OPRN 210330Z 2100/2206 21010KT 4000 HZ FEW040 TEMPO 2209/2212 13010G20KT 4000 HZ FEW030 SCT040

Säähavainnot ja -ennusteet yli 4000 lentoasemalta (METAR- ja TAF-raportit).

Käytössä olevat sääasemat on merkitty karttaan keltaisilla ja punaisilla pisteillä.

Aseta hiiri pisteen päälle nähdäksesi sääaseman nimen.

Klikkaa sitten nähdäksesi säähavainnot ja -ennusteet.

Kartan vaihtaminen: klikkaa mustalla rastilla varustettuja vihreitä pisteitä, niin voit zoomata sisään; viivalla varustettua vihreää pistettä, niin voit zoomata ulos tai vihreitä nuolia, niin pääset viereisille kartoille.


METAR-TAF: